Mandan, ND

3:23 PM CDT on July 21, 2017 (GMT -0500)
Mandan

Weather History for KY19 - September, 2012

Change the Weather History Date:

Thursday, September 6, 2012

  Actual Average (KBIS) Record (KBIS)
Temperature  
Mean Temperature 60 °F -  
Max Temperature 71 °F 78 °F 103 °F (1978)
Min Temperature 48 °F 47 °F 32 °F (1956)
Degree Days  
Heating Degree Days 6    
Growing Degree Days 10 (Base 50)    
Moisture  
Dew Point 46 °F    
Average Humidity 64    
Maximum Humidity 94    
Minimum Humidity 38    
Precipitation  
Precipitation 0.00 in - - ()
Sea Level Pressure  
Sea Level Pressure 29.98 in    
Wind  
Wind Speed 7 mph (NNE)    
Max Wind Speed 20 mph    
Max Gust Speed 24 mph    
Visibility 10 miles    
Events      
Averages and records for this station are not official NWS values.
T = Trace of Precipitation, MM = Missing Value Source: NWS Daily Summary

Daily Weather History Graph

Daily Weather History Graph

Search for Another Location

Airport or City:

Trip Planner

Search our weather history database for the weather conditions in past years. The results will help you decide how hot, cold, wet, or windy it might be!

Date:

Astronomy

Sep. 06, 2012 Rise Set
Actual Time 7:10 AM CDT 8:12 PM CDT
Civil Twilight 6:39 AM CDT 8:42 PM CDT
Nautical Twilight 6:02 AM CDT 9:19 PM CDT
Astronomical Twilight 5:22 AM CDT 9:59 PM CDT
Moon 10:57 PM CDT (9/6) 1:37 PM CDT (9/6)
Length of Visible Light 14h 03m
Length of Day
13h 01m
Waning Gibbous, 67% of the Moon is Illuminated
Sep 6
Waning Gibbous
Sep 8
Last Quarter
Sep 15
New
Sep 22
First Quarter
Sep 29
Full

Hourly Weather History & Observations

Time (CDT) Temp. Dew Point Humidity Pressure Visibility Wind Dir Wind Speed Gust Speed Precip Events Conditions
12:15 AM 59.0 °F 37.4 °F 45% 29.93 in 10.0 mi SSE 4.6 mph - N/A   Clear
12:35 AM 60.8 °F 37.4 °F 42% 29.93 in 10.0 mi SE 5.8 mph - N/A   Clear
12:55 AM 55.4 °F 39.2 °F 54% 29.94 in 10.0 mi SW 9.2 mph - N/A   Clear
1:15 AM 55.4 °F 39.2 °F 54% 29.94 in 10.0 mi ENE 4.6 mph - N/A   Clear
1:55 AM 53.6 °F 39.2 °F 58% 29.93 in 10.0 mi South 5.8 mph - N/A   Clear
2:15 AM 51.8 °F 39.2 °F 62% 29.93 in 10.0 mi South 4.6 mph - N/A   Clear
2:35 AM 55.4 °F 39.2 °F 54% 29.93 in 10.0 mi ESE 3.5 mph - N/A   Clear
2:55 AM 50.0 °F 39.2 °F 66% 29.93 in 10.0 mi NE 3.5 mph - N/A   Clear
3:15 AM 50.0 °F 42.8 °F 76% 29.93 in 10.0 mi NE 5.8 mph - N/A   Clear
3:35 AM 51.8 °F 42.8 °F 71% 29.92 in 10.0 mi NE 6.9 mph - N/A   Clear
3:55 AM 50.0 °F 42.8 °F 76% 29.93 in 10.0 mi NNE 5.8 mph - N/A   Clear
4:15 AM 50.0 °F 42.8 °F 76% 29.93 in 10.0 mi NE 5.8 mph - N/A   Clear
4:35 AM 48.2 °F 44.6 °F 87% 29.93 in 10.0 mi NNE 8.1 mph - N/A   Clear
4:55 AM 50.0 °F 44.6 °F 82% 29.93 in 10.0 mi NNE 8.1 mph - N/A   Clear
5:15 AM 48.2 °F 44.6 °F 87% 29.93 in 10.0 mi North 9.2 mph - N/A   Clear
5:35 AM 48.2 °F 44.6 °F 87% 29.93 in 10.0 mi NNE 9.2 mph - N/A   Clear
5:55 AM 48.2 °F 44.6 °F 87% 29.93 in 10.0 mi NNE 8.1 mph - N/A   Clear
6:15 AM 48.2 °F 44.6 °F 87% 29.93 in 10.0 mi NNE 3.5 mph - N/A   Clear
6:35 AM 48.2 °F 44.6 °F 87% 29.94 in 10.0 mi North 6.9 mph - N/A   Clear
6:55 AM 48.2 °F 44.6 °F 87% 29.94 in 10.0 mi NNE 6.9 mph - N/A   Partly Cloudy
7:15 AM 48.2 °F 44.6 °F 87% 29.95 in 10.0 mi North - - N/A   Partly Cloudy
7:35 AM 48.2 °F 44.6 °F 87% 29.95 in 10.0 mi North - - N/A   Clear
7:55 AM 48.2 °F 44.6 °F 87% 29.96 in 10.0 mi North - - N/A   Clear
8:15 AM 50.0 °F 44.6 °F 82% 29.96 in 10.0 mi North 5.8 mph - N/A   Clear
8:35 AM 51.8 °F 44.6 °F 76% 29.97 in 10.0 mi North - - N/A   Clear
8:55 AM 53.6 °F 44.6 °F 72% 29.97 in 10.0 mi North 9.2 mph - N/A   Clear
9:15 AM 55.4 °F 44.6 °F 67% 29.97 in 10.0 mi NE 8.1 mph - N/A   Clear
9:35 AM 57.2 °F 46.4 °F 67% 29.97 in 10.0 mi NE 6.9 mph - N/A   Scattered Clouds
9:55 AM 57.2 °F 46.4 °F 67% 29.97 in 10.0 mi NNE 6.9 mph - N/A   Partly Cloudy
10:15 AM 57.2 °F 46.4 °F 67% 29.97 in 10.0 mi North 6.9 mph - N/A   Partly Cloudy
10:35 AM 57.2 °F 48.2 °F 72% 29.99 in 10.0 mi NNW 5.8 mph - N/A   Mostly Cloudy
10:55 AM 59.0 °F 48.2 °F 67% 29.98 in 10.0 mi East 6.9 mph - N/A   Scattered Clouds
11:15 AM 59.0 °F 50.0 °F 72% 29.98 in 10.0 mi NE 8.1 mph - N/A   Partly Cloudy
11:35 AM 62.6 °F 50.0 °F 63% 29.99 in 10.0 mi NE 8.1 mph - N/A   Partly Cloudy
11:55 AM 64.4 °F 50.0 °F 59% 29.99 in 10.0 mi NE 9.2 mph - N/A   Partly Cloudy
12:15 PM 64.4 °F 48.2 °F 56% 30.00 in 10.0 mi NE 11.5 mph - N/A   Scattered Clouds
12:35 PM 64.4 °F 48.2 °F 56% 29.98 in 10.0 mi ENE 12.7 mph - N/A   Partly Cloudy
12:55 PM 66.2 °F 48.2 °F 52% 29.98 in 10.0 mi ENE 10.4 mph - N/A   Partly Cloudy
1:15 PM 66.2 °F 48.2 °F 52% 29.98 in 10.0 mi NNE 12.7 mph 18.4 mph N/A   Partly Cloudy
1:35 PM 66.2 °F 48.2 °F 52% 29.98 in 10.0 mi East 10.4 mph - N/A   Partly Cloudy
1:55 PM 66.2 °F 48.2 °F 52% 29.98 in 10.0 mi NE 10.4 mph - N/A   Clear
2:15 PM 66.2 °F 48.2 °F 52% 29.98 in 10.0 mi East 3.5 mph - N/A   Clear
2:35 PM 66.2 °F 48.2 °F 52% 29.98 in 10.0 mi ENE 4.6 mph - N/A   Clear
2:55 PM 68.0 °F 48.2 °F 49% 29.97 in 10.0 mi NNE 5.8 mph - N/A   Clear
3:15 PM 71.6 °F 46.4 °F 41% 29.98 in 10.0 mi North 12.7 mph - N/A   Clear
3:35 PM 71.6 °F 44.6 °F 38% 29.98 in 10.0 mi North 5.8 mph - N/A   Clear
3:55 PM 71.6 °F 44.6 °F 38% 29.98 in 10.0 mi NNW 5.8 mph - N/A   Partly Cloudy
4:15 PM 69.8 °F 46.4 °F 43% 29.97 in 10.0 mi NNE 10.4 mph - N/A   Mostly Cloudy
4:35 PM 71.6 °F 44.6 °F 38% 29.97 in 10.0 mi North 8.1 mph - N/A   Overcast
4:55 PM 69.8 °F 44.6 °F 40% 29.97 in 10.0 mi North 4.6 mph - N/A   Overcast
5:15 PM 71.6 °F 44.6 °F 38% 29.97 in 10.0 mi NW 9.2 mph - N/A   Overcast
5:35 PM 71.6 °F 44.6 °F 38% 29.97 in 10.0 mi North 11.5 mph - N/A   Mostly Cloudy
5:55 PM 69.8 °F 44.6 °F 40% 29.98 in 10.0 mi North 19.6 mph 24.2 mph N/A   Mostly Cloudy
6:15 PM 71.6 °F 46.4 °F 41% 29.98 in 10.0 mi North 12.7 mph - N/A   Mostly Cloudy
6:35 PM 69.8 °F 46.4 °F 43% 29.99 in 10.0 mi North 13.8 mph 19.6 mph N/A   Clear
6:55 PM 68.0 °F 46.4 °F 46% 30.00 in 10.0 mi North 12.7 mph - N/A   Clear
7:15 PM 68.0 °F 46.4 °F 46% 30.01 in 10.0 mi North 10.4 mph - N/A   Clear
7:35 PM 66.2 °F 46.4 °F 49% 30.02 in 10.0 mi North 15.0 mph 21.9 mph N/A   Clear
7:55 PM 64.4 °F 48.2 °F 56% 30.03 in 10.0 mi North 10.4 mph 17.3 mph N/A   Clear
8:15 PM 62.6 °F 48.2 °F 59% 30.03 in 10.0 mi North 8.1 mph - N/A   Clear
8:35 PM 62.6 °F 48.2 °F 59% 30.04 in 10.0 mi NNE 11.5 mph - N/A   Clear
8:55 PM 60.8 °F 48.2 °F 63% 30.05 in 10.0 mi NNE 11.5 mph - N/A   Partly Cloudy
9:15 PM 59.0 °F 48.2 °F 67% 30.06 in 10.0 mi North 9.2 mph - N/A   Partly Cloudy
9:35 PM 59.0 °F 48.2 °F 67% 30.07 in 10.0 mi North 9.2 mph - N/A   Partly Cloudy
9:55 PM 57.2 °F 48.2 °F 72% 30.08 in 10.0 mi North 6.9 mph - N/A   Scattered Clouds
10:15 PM 55.4 °F 48.2 °F 77% 30.08 in 10.0 mi North 6.9 mph - N/A   Scattered Clouds
10:35 PM 53.6 °F 48.2 °F 82% 30.09 in 10.0 mi NNW 6.9 mph - N/A   Scattered Clouds
10:55 PM 50.0 °F 48.2 °F 94% 30.09 in 10.0 mi North 8.1 mph - N/A   Mostly Cloudy
11:15 PM 51.8 °F 48.2 °F 88% 30.10 in 10.0 mi NNW 5.8 mph - N/A   Mostly Cloudy
11:35 PM 50.0 °F 46.4 °F 87% 30.11 in 10.0 mi NW 5.8 mph - N/A   Mostly Cloudy
11:55 PM 51.8 °F 48.2 °F 88% 30.11 in 10.0 mi NNW 6.9 mph - N/A   Overcast